Terminal Aerodrome Forecast
Issued by NWS Pittsburgh, PA

Home | Current Version | Previous Version | Text Only | Print | Product List | Glossary On
Versions: 1 2 3 4 5 6 7 8 9 10 11 12 13 14 15 16 17 18 19 20 21 22 23 24 25 26
000
FTUS41 KPBZ 220912 AAB
TAFPIT
TAF AMD
KPIT 220912Z 2209/2312 19004KT 3SM BR OVC006
     FM221400 20004KT 4SM -TSRA OVC050CB
     FM221500 20005KT 5SM -SHRA OVC050
      TEMPO 2215/2216 4SM -TSRA OVC025CB
     FM221800 22007KT P6SM OVC050
     FM230700 23006KT 4SM BR OVC025=

USA.gov is the U.S. government's official web portal to all federal, state and local government web resources and services.